Portada
METAR-TAF:

METAR-TAF

Aeropuertos :

Bolzano, Italia

latitud: 46-28N, longitud: 011-20E, altitud: 262 m

Observación

El informe se hizo hace 6 horas y 38 minutos, a las 20:50 UTC
Viento 3 kt con dirección variable
Temperatura 17°C
Humedad 55%
Presión 1016 hPa
Visibilidad 10 km o más
Escasas nubes a una altura de 10000 ft

METAR: LIPB 312050Z VRB03KT 9999 FEW100 17/08 Q1016 RMK MON INVIS

Hora: 05:28 (03:28 UTC)

Pronóstico

El informe se hizo hace 10 horas y 28 minutos, a las 17:00 UTC
Pronóstico válido del 31 a las 18 UTC al 01 a las 18 UTC
Viento 6 kt con dirección variable
Visibilidad 10 km o más
Cielo nuboso a una altura de 5000 ft

TAF: LIPB 311700Z 3118/0118 VRB06KT 9999 BKN050

Observaciones y pronósticos meteorológicos de más de 4000 aeropuertos (mensajes METAR y TAF).

Los puntos amarillos y rojos representan las estaciones disponibles.

Ponga el ratón en el punto deseado para ver el nombre de la estación.

Haga clic para ver las observaciones y los pronósticos meteorológicos.

Para cambiar el mapa : haga clic en los botones verdes con una cruz de color negro para hacer un zoom, en el botón verde con un guión para alejar o en las flechas verdes para mapas adyacentes.


METAR-TAF: